Time;durP1;ratioP1;P1;durP2;ratioP2;P2;SDS_P1;SDS_P2;PMS_P1;PMS_P2;Temp;Humidity;BMP_temperature;BMP_pressure;BME280_temperature;BME280_humidity;BME280_pressure;Samples;Min_cycle;Max_cycle;Signal;HPM_P1;HPM_P2
2022/09/27 00:00:45;;;;;;;0.80;0.80;;;;;;;;;;5103052;28;20210;-65
2022/09/27 00:03:12;;;;;;;0.70;0.70;;;;;;;;;;5095531;28;20200;-65
2022/09/27 00:05:41;;;;;;;0.60;0.60;;;;;;;;;;5095465;28;20671;-64
2022/09/27 00:08:08;;;;;;;0.70;0.70;;;;;;;;;;5095662;28;20260;-65
2022/09/27 00:10:36;;;;;;;1.13;0.70;;;;;;;;;;5104487;27;20645;-65
2022/09/27 00:13:03;;;;;;;0.80;0.80;;;;;;;;;;5095250;28;20240;-65
2022/09/27 00:15:30;;;;;;;0.80;0.80;;;;;;;;;;5074801;28;20836;-65
2022/09/27 00:17:58;;;;;;;1.77;0.80;;;;;;;;;;5075028;28;20288;-65
2022/09/27 00:20:25;;;;;;;0.90;0.73;;;;;;;;;;5074689;28;20674;-65
2022/09/27 00:22:53;;;;;;;2.03;0.90;;;;;;;;;;5075099;28;20339;-65
2022/09/27 00:25:21;;;;;;;0.73;0.73;;;;;;;;;;5074924;28;20250;-64
2022/09/27 00:27:49;;;;;;;0.80;0.80;;;;;;;;;;5082214;28;20200;-65
2022/09/27 00:30:17;;;;;;;0.80;0.80;;;;;;;;;;5093409;28;20734;-66
2022/09/27 00:32:44;;;;;;;1.30;0.87;;;;;;;;;;5075425;28;20244;-66
2022/09/27 00:35:11;;;;;;;0.77;0.77;;;;;;;;;;5088530;28;20669;-65
2022/09/27 00:37:39;;;;;;;0.70;0.70;;;;;;;;;;5090124;28;20281;-65
2022/09/27 00:40:07;;;;;;;2.07;0.90;;;;;;;;;;5094991;28;20637;-65
2022/09/27 00:42:35;;;;;;;1.00;1.00;;;;;;;;;;5095175;28;20501;-65
2022/09/27 00:45:05;;;;;;;0.90;0.90;;;;;;;;;;5094715;28;20729;-65
2022/09/27 00:47:59;;;;;;;1.10;1.00;;;;;;;;;;5086147;28;20327;-65
2022/09/27 00:50:32;;;;;;;0.87;0.80;;;;;;;;;;5072834;28;20204;-65
2022/09/27 00:53:11;;;;;;;0.90;0.90;;;;;;;;;;5076089;28;20268;-65
2022/09/27 00:55:41;;;;;;;1.00;0.90;;;;;;;;;;5115273;27;20305;-65
2022/09/27 00:58:09;;;;;;;1.10;0.80;;;;;;;;;;5106188;28;20210;-65
2022/09/27 01:00:39;;;;;;;1.00;1.00;;;;;;;;;;5097407;27;20198;-65
2022/09/27 01:03:08;;;;;;;0.87;0.87;;;;;;;;;;5098732;28;20282;-65
2022/09/27 01:05:35;;;;;;;1.37;1.27;;;;;;;;;;5077318;28;20315;-65
2022/09/27 01:08:03;;;;;;;1.27;1.03;;;;;;;;;;5099138;28;20304;-65
2022/09/27 01:10:37;;;;;;;0.80;0.80;;;;;;;;;;5093849;28;20286;-64
2022/09/27 01:13:04;;;;;;;0.90;0.90;;;;;;;;;;5110878;28;20291;-65
2022/09/27 01:15:42;;;;;;;1.10;1.10;;;;;;;;;;5090513;28;20219;-65
2022/09/27 01:18:13;;;;;;;0.90;0.90;;;;;;;;;;5074247;28;20445;-65
2022/09/27 01:20:59;;;;;;;0.80;0.80;;;;;;;;;;5082680;28;20197;-65
2022/09/27 01:23:45;;;;;;;1.17;1.00;;;;;;;;;;5109938;28;20202;-65
2022/09/27 01:26:23;;;;;;;3.60;1.00;;;;;;;;;;5109846;27;20227;-65
2022/09/27 01:28:57;;;;;;;1.10;1.03;;;;;;;;;;5107551;27;20279;-65
2022/09/27 01:31:27;;;;;;;0.90;0.90;;;;;;;;;;5094475;28;20697;-65
2022/09/27 01:34:04;;;;;;;0.73;0.73;;;;;;;;;;5088741;28;20200;-65
2022/09/27 01:36:46;;;;;;;0.80;0.80;;;;;;;;;;5095223;27;20330;-65
2022/09/27 01:39:32;;;;;;;1.80;1.00;;;;;;;;;;5095515;27;20258;-65
2022/09/27 01:42:10;;;;;;;1.10;1.00;;;;;;;;;;5098818;28;20630;-65
2022/09/27 01:44:58;;;;;;;1.63;0.90;;;;;;;;;;5093927;28;20780;-65
2022/09/27 01:47:33;;;;;;;1.07;1.07;;;;;;;;;;5094623;27;20292;-65
2022/09/27 01:50:00;;;;;;;0.90;0.90;;;;;;;;;;5113570;27;20309;-65
2022/09/27 01:52:38;;;;;;;1.10;1.00;;;;;;;;;;5110512;27;20547;-65
2022/09/27 01:55:07;;;;;;;1.00;1.00;;;;;;;;;;5090677;28;20260;-65
2022/09/27 01:57:37;;;;;;;1.70;1.10;;;;;;;;;;5095655;27;20237;-65
2022/09/27 02:00:09;;;;;;;1.20;1.00;;;;;;;;;;5097422;28;20294;-65
2022/09/27 02:02:38;;;;;;;1.00;1.00;;;;;;;;;;5092893;28;20207;-64
2022/09/27 02:05:08;;;;;;;1.87;1.10;;;;;;;;;;5093495;28;20224;-65
2022/09/27 02:08:02;;;;;;;1.20;1.10;;;;;;;;;;5092860;28;20656;-65
2022/09/27 02:10:33;;;;;;;2.67;1.10;;;;;;;;;;5096875;28;20564;-65
2022/09/27 02:13:07;;;;;;;1.03;1.03;;;;;;;;;;5101129;28;20209;-64
2022/09/27 02:15:42;;;;;;;0.87;0.87;;;;;;;;;;5093090;28;20367;-65
2022/09/27 02:18:18;;;;;;;1.07;0.90;;;;;;;;;;5093650;28;20219;-66
2022/09/27 02:20:50;;;;;;;1.77;1.23;;;;;;;;;;5094124;28;20364;-65
2022/09/27 02:23:20;;;;;;;1.47;0.97;;;;;;;;;;5112267;27;20200;-65
2022/09/27 02:25:48;;;;;;;0.90;0.90;;;;;;;;;;5113442;27;20254;-64
2022/09/27 02:28:18;;;;;;;0.80;0.80;;;;;;;;;;5104732;27;20204;-65
2022/09/27 02:30:45;;;;;;;1.17;0.80;;;;;;;;;;5094567;28;20211;-65
2022/09/27 02:33:13;;;;;;;0.70;0.70;;;;;;;;;;5092445;28;20270;-65
2022/09/27 02:35:40;;;;;;;1.30;0.90;;;;;;;;;;5095020;28;20299;-65
2022/09/27 02:38:08;;;;;;;1.50;1.00;;;;;;;;;;5108721;27;20310;-65
2022/09/27 02:40:42;;;;;;;0.80;0.80;;;;;;;;;;5100643;28;20279;-65
2022/09/27 02:43:10;;;;;;;0.77;0.77;;;;;;;;;;5093879;28;20510;-65
2022/09/27 02:45:56;;;;;;;0.60;0.60;;;;;;;;;;5092142;28;20224;-65
2022/09/27 02:48:32;;;;;;;1.73;0.80;;;;;;;;;;5072338;28;20658;-65
2022/09/27 02:51:14;;;;;;;0.70;0.70;;;;;;;;;;5074100;28;20291;-65
2022/09/27 02:53:51;;;;;;;0.53;0.53;;;;;;;;;;5092507;28;20223;-64
2022/09/27 02:56:24;;;;;;;0.70;0.70;;;;;;;;;;5092398;28;20219;-65
2022/09/27 02:58:52;;;;;;;1.07;0.63;;;;;;;;;;5123342;28;20287;-65
2022/09/27 03:01:33;;;;;;;0.60;0.60;;;;;;;;;;5084975;28;20204;-64
2022/09/27 03:04:04;;;;;;;0.70;0.70;;;;;;;;;;5080526;28;20212;-65
2022/09/27 03:06:32;;;;;;;0.60;0.60;;;;;;;;;;5071888;28;20315;-65
2022/09/27 03:08:59;;;;;;;1.40;0.90;;;;;;;;;;5072359;28;20205;-65
2022/09/27 03:11:26;;;;;;;0.80;0.80;;;;;;;;;;5072098;28;20769;-65
2022/09/27 03:13:54;;;;;;;1.83;0.70;;;;;;;;;;5072025;28;20212;-65
2022/09/27 03:16:35;;;;;;;0.80;0.80;;;;;;;;;;5074182;28;20227;-65
2022/09/27 03:19:02;;;;;;;2.10;0.80;;;;;;;;;;5071947;28;20663;-65
2022/09/27 03:21:30;;;;;;;0.90;0.90;;;;;;;;;;5088357;28;20244;-65
2022/09/27 03:23:57;;;;;;;0.93;0.90;;;;;;;;;;5092549;28;20292;-65
2022/09/27 03:26:24;;;;;;;3.50;1.10;;;;;;;;;;5092451;28;20216;-65
2022/09/27 03:28:52;;;;;;;0.97;0.97;;;;;;;;;;5105944;27;20700;-64
2022/09/27 03:31:19;;;;;;;0.80;0.80;;;;;;;;;;5129088;27;20247;-65
2022/09/27 03:33:46;;;;;;;0.83;0.83;;;;;;;;;;5095448;28;20200;-65
2022/09/27 03:36:13;;;;;;;1.13;1.13;;;;;;;;;;5093423;28;20311;-65
2022/09/27 03:38:41;;;;;;;1.53;1.00;;;;;;;;;;5095925;28;20238;-65
2022/09/27 03:41:08;;;;;;;1.40;1.23;;;;;;;;;;5096369;28;20307;-64
2022/09/27 03:43:35;;;;;;;2.40;2.10;;;;;;;;;;5095898;28;20206;-66
2022/09/27 03:46:06;;;;;;;2.73;1.70;;;;;;;;;;5094160;28;20668;-64
2022/09/27 03:48:33;;;;;;;1.63;1.40;;;;;;;;;;5101868;28;20212;-64
2022/09/27 03:51:01;;;;;;;2.83;1.50;;;;;;;;;;5098163;28;20288;-64
2022/09/27 03:53:28;;;;;;;3.50;1.40;;;;;;;;;;5096094;28;20228;-65
2022/09/27 03:55:56;;;;;;;2.77;1.73;;;;;;;;;;5075727;28;20500;-64
2022/09/27 03:58:23;;;;;;;2.70;1.43;;;;;;;;;;5093315;27;20224;-65
2022/09/27 04:00:50;;;;;;;1.53;1.30;;;;;;;;;;5101070;28;20283;-65
2022/09/27 04:03:18;;;;;;;1.43;1.33;;;;;;;;;;5092482;28;20200;-64
2022/09/27 04:05:46;;;;;;;2.57;1.63;;;;;;;;;;5091661;28;20308;-64
2022/09/27 04:08:13;;;;;;;2.87;1.60;;;;;;;;;;5092156;28;20205;-65
2022/09/27 04:10:42;;;;;;;3.63;1.70;;;;;;;;;;5092459;28;20212;-65
2022/09/27 04:13:09;;;;;;;4.60;2.00;;;;;;;;;;5075210;28;20201;-64
2022/09/27 04:15:38;;;;;;;6.30;2.17;;;;;;;;;;5074583;28;20801;-65
2022/09/27 04:18:06;;;;;;;2.70;2.00;;;;;;;;;;5074804;28;20725;-64
2022/09/27 04:20:33;;;;;;;4.57;2.27;;;;;;;;;;5074677;28;20272;-65
2022/09/27 04:23:00;;;;;;;2.87;2.10;;;;;;;;;;5075041;28;20207;-65
2022/09/27 04:25:28;;;;;;;6.03;2.20;;;;;;;;;;5074514;28;20227;-65
2022/09/27 04:27:55;;;;;;;5.80;2.37;;;;;;;;;;5080269;28;20320;-64
2022/09/27 04:30:25;;;;;;;5.83;2.40;;;;;;;;;;5107407;28;20369;-65
2022/09/27 04:32:52;;;;;;;5.40;2.10;;;;;;;;;;5111143;28;20642;-66
2022/09/27 04:38:06;;;;;;;2.73;2.10;;;;;;;;;;5113439;28;20255;-65
2022/09/27 04:40:37;;;;;;;3.00;2.20;;;;;;;;;;5111478;28;20295;-65
2022/09/27 04:43:04;;;;;;;5.83;2.40;;;;;;;;;;5112089;28;20312;-65
2022/09/27 04:45:32;;;;;;;4.07;2.50;;;;;;;;;;5106112;28;20595;-64
2022/09/27 04:47:59;;;;;;;4.73;2.50;;;;;;;;;;5094851;28;20266;-65
2022/09/27 04:50:27;;;;;;;4.10;2.13;;;;;;;;;;5094932;28;20279;-65
2022/09/27 04:52:56;;;;;;;4.03;2.40;;;;;;;;;;5095535;28;20273;-65
2022/09/27 04:55:23;;;;;;;3.93;1.90;;;;;;;;;;5094946;28;20671;-65
2022/09/27 04:57:50;;;;;;;6.10;2.10;;;;;;;;;;5097284;28;20224;-65
2022/09/27 05:00:18;;;;;;;4.80;1.80;;;;;;;;;;5097103;28;20298;-65
2022/09/27 05:02:48;;;;;;;2.43;1.93;;;;;;;;;;5094259;28;20291;-65
2022/09/27 05:05:16;;;;;;;6.07;2.07;;;;;;;;;;5084705;28;20221;-65
2022/09/27 05:07:43;;;;;;;3.23;1.70;;;;;;;;;;5074129;28;20289;-65
2022/09/27 05:10:11;;;;;;;3.27;1.70;;;;;;;;;;5074027;28;20621;-65
2022/09/27 05:12:38;;;;;;;2.77;1.70;;;;;;;;;;5074053;28;20204;-65
2022/09/27 05:15:06;;;;;;;2.93;1.73;;;;;;;;;;5073897;28;20221;-65
2022/09/27 05:17:33;;;;;;;1.20;1.10;;;;;;;;;;5073749;28;20221;-65
2022/09/27 05:20:00;;;;;;;2.13;1.10;;;;;;;;;;5074082;28;20293;-65
2022/09/27 05:22:28;;;;;;;1.93;0.90;;;;;;;;;;5074108;28;20204;-65
2022/09/27 05:24:55;;;;;;;1.67;0.80;;;;;;;;;;5091771;28;20801;-65
2022/09/27 05:27:23;;;;;;;3.70;1.13;;;;;;;;;;5077726;27;20586;-65
2022/09/27 05:29:50;;;;;;;1.80;1.20;;;;;;;;;;5099909;28;20200;-65
2022/09/27 05:32:17;;;;;;;0.80;0.80;;;;;;;;;;5094045;28;20207;-65
2022/09/27 05:34:45;;;;;;;0.97;0.97;;;;;;;;;;5101236;28;20235;-65
2022/09/27 05:37:13;;;;;;;0.90;0.90;;;;;;;;;;5089671;28;20232;-64
2022/09/27 05:39:40;;;;;;;1.07;0.90;;;;;;;;;;5093854;28;20205;-65
2022/09/27 05:42:09;;;;;;;0.90;0.90;;;;;;;;;;5094183;28;20204;-65
2022/09/27 05:44:37;;;;;;;0.90;0.90;;;;;;;;;;5093824;28;20256;-65
2022/09/27 05:47:04;;;;;;;1.43;0.90;;;;;;;;;;5093321;28;20300;-65
2022/09/27 05:49:32;;;;;;;0.80;0.80;;;;;;;;;;5114869;27;20555;-65
2022/09/27 05:52:00;;;;;;;1.33;1.10;;;;;;;;;;5118621;27;20632;-65
2022/09/27 05:54:28;;;;;;;1.33;1.00;;;;;;;;;;5100750;27;20299;-65
2022/09/27 05:56:59;;;;;;;2.33;1.07;;;;;;;;;;5098265;28;20288;-65
2022/09/27 05:59:27;;;;;;;1.37;1.20;;;;;;;;;;5095810;27;20296;-65
2022/09/27 06:01:54;;;;;;;2.07;0.80;;;;;;;;;;5113771;27;20286;-65
2022/09/27 06:04:21;;;;;;;1.10;1.00;;;;;;;;;;5109883;28;20475;-65
2022/09/27 06:06:49;;;;;;;1.40;0.90;;;;;;;;;;5085808;28;20622;-65
2022/09/27 06:09:17;;;;;;;1.27;1.00;;;;;;;;;;5093435;28;20758;-65
2022/09/27 06:11:45;;;;;;;2.43;1.50;;;;;;;;;;5092641;28;20335;-65
2022/09/27 06:14:12;;;;;;;2.77;1.10;;;;;;;;;;5093418;28;20571;-65
2022/09/27 06:16:40;;;;;;;1.30;1.20;;;;;;;;;;5093313;28;20212;-64
2022/09/27 06:19:07;;;;;;;2.63;1.30;;;;;;;;;;5093761;28;20228;-65
2022/09/27 06:21:36;;;;;;;1.53;1.37;;;;;;;;;;5093715;28;20211;-65
2022/09/27 06:24:03;;;;;;;3.83;1.33;;;;;;;;;;5093686;28;20209;-65
2022/09/27 06:26:32;;;;;;;2.83;1.43;;;;;;;;;;5092822;28;20220;-65
2022/09/27 06:28:59;;;;;;;4.53;1.93;;;;;;;;;;5099386;28;20208;-64
2022/09/27 06:31:27;;;;;;;1.90;1.50;;;;;;;;;;5093668;28;20708;-65
2022/09/27 06:33:54;;;;;;;1.83;1.40;;;;;;;;;;5095029;28;20208;-65
2022/09/27 06:36:21;;;;;;;3.43;1.43;;;;;;;;;;5094795;28;20306;-65
2022/09/27 06:38:49;;;;;;;2.77;1.40;;;;;;;;;;5113459;27;20309;-65
2022/09/27 06:41:16;;;;;;;3.57;1.50;;;;;;;;;;5113266;27;20203;-65
2022/09/27 06:43:44;;;;;;;2.77;1.30;;;;;;;;;;5109528;27;20680;-65
2022/09/27 06:46:11;;;;;;;1.77;1.23;;;;;;;;;;5083620;28;20319;-65
2022/09/27 06:48:38;;;;;;;1.37;1.20;;;;;;;;;;5093260;28;20645;-65
2022/09/27 06:51:06;;;;;;;1.20;1.00;;;;;;;;;;5092800;28;20211;-65
2022/09/27 06:53:33;;;;;;;2.30;1.33;;;;;;;;;;5092772;28;20206;-65
2022/09/27 06:56:01;;;;;;;1.90;1.10;;;;;;;;;;5092483;28;20288;-64
2022/09/27 07:01:15;;;;;;;1.40;1.17;;;;;;;;;;5111369;28;20315;-65
2022/09/27 07:03:43;;;;;;;2.03;1.20;;;;;;;;;;5093306;28;20204;-65
2022/09/27 07:06:15;;;;;;;1.00;0.90;;;;;;;;;;5084496;28;20376;-65
2022/09/27 07:08:43;;;;;;;2.97;1.10;;;;;;;;;;5090492;28;20618;-65
2022/09/27 07:11:10;;;;;;;0.90;0.90;;;;;;;;;;5072606;28;20288;-65
2022/09/27 07:13:41;;;;;;;0.80;0.80;;;;;;;;;;5072463;28;20688;-65
2022/09/27 07:16:15;;;;;;;1.30;1.00;;;;;;;;;;5072336;28;20224;-65
2022/09/27 07:18:42;;;;;;;0.70;0.70;;;;;;;;;;5099750;28;20230;-65
2022/09/27 07:21:11;;;;;;;0.80;0.80;;;;;;;;;;5092593;28;20745;-63
2022/09/27 07:23:38;;;;;;;1.30;0.70;;;;;;;;;;5092972;28;20636;-65
2022/09/27 07:26:07;;;;;;;1.23;1.10;;;;;;;;;;5092699;28;20216;-65
2022/09/27 07:28:34;;;;;;;0.97;0.97;;;;;;;;;;5093825;28;20276;-64
2022/09/27 07:31:02;;;;;;;1.10;1.00;;;;;;;;;;5093077;28;20210;-65
2022/09/27 07:33:30;;;;;;;1.33;1.00;;;;;;;;;;5092340;28;20200;-64
2022/09/27 07:35:58;;;;;;;1.37;1.10;;;;;;;;;;5092540;28;20315;-65
2022/09/27 07:38:25;;;;;;;1.77;1.17;;;;;;;;;;5129733;28;20255;-66
2022/09/27 07:40:53;;;;;;;1.20;1.13;;;;;;;;;;5100258;28;20228;-65
2022/09/27 07:43:20;;;;;;;2.53;1.10;;;;;;;;;;5120510;28;20290;-66
2022/09/27 07:45:48;;;;;;;1.10;1.10;;;;;;;;;;5096089;28;20216;-65
2022/09/27 07:48:16;;;;;;;1.30;1.20;;;;;;;;;;5092927;28;20208;-64
2022/09/27 07:50:43;;;;;;;1.00;1.00;;;;;;;;;;5098740;28;20211;-65
2022/09/27 07:53:12;;;;;;;1.40;1.30;;;;;;;;;;5078531;28;20698;-65
2022/09/27 07:55:41;;;;;;;1.50;1.40;;;;;;;;;;5071776;28;20232;-65
2022/09/27 07:58:09;;;;;;;2.53;1.33;;;;;;;;;;5094218;28;20295;-65
2022/09/27 08:00:39;;;;;;;1.30;1.30;;;;;;;;;;5100294;28;20256;-65
2022/09/27 08:03:14;;;;;;;1.87;1.43;;;;;;;;;;5091760;28;20612;-65
2022/09/27 08:05:46;;;;;;;1.20;1.20;;;;;;;;;;5085940;28;20249;-65
2022/09/27 08:08:14;;;;;;;2.57;1.40;;;;;;;;;;5093963;28;20207;-65
2022/09/27 08:10:43;;;;;;;1.93;1.83;;;;;;;;;;5077405;28;20762;-65
2022/09/27 08:13:11;;;;;;;1.77;1.53;;;;;;;;;;5074750;28;20262;-65
2022/09/27 08:15:38;;;;;;;1.30;1.20;;;;;;;;;;5079969;28;20266;-64
2022/09/27 08:18:06;;;;;;;1.27;1.20;;;;;;;;;;5091489;28;20243;-65
2022/09/27 08:20:34;;;;;;;3.10;1.53;;;;;;;;;;5095704;28;20609;-65
2022/09/27 08:23:03;;;;;;;1.30;1.20;;;;;;;;;;5091868;28;20284;-64
2022/09/27 08:25:30;;;;;;;1.63;1.53;;;;;;;;;;5094306;28;20635;-66
2022/09/27 08:27:58;;;;;;;1.63;1.33;;;;;;;;;;5085366;28;20731;-64
2022/09/27 08:30:26;;;;;;;1.37;1.37;;;;;;;;;;5096177;28;20234;-64
2022/09/27 08:32:55;;;;;;;1.60;1.50;;;;;;;;;;5094493;28;20212;-65
2022/09/27 08:35:22;;;;;;;1.63;1.40;;;;;;;;;;5101060;27;20316;-65
2022/09/27 08:37:54;;;;;;;1.60;1.50;;;;;;;;;;5106559;28;20250;-65
2022/09/27 08:40:23;;;;;;;3.07;1.40;;;;;;;;;;5095536;28;20658;-64
2022/09/27 08:43:04;;;;;;;1.40;1.30;;;;;;;;;;5092886;28;21240;-65
2022/09/27 08:45:35;;;;;;;1.73;1.47;;;;;;;;;;5074980;28;20307;-65
2022/09/27 08:48:04;;;;;;;1.50;1.10;;;;;;;;;;5074918;28;20235;-64
2022/09/27 08:50:35;;;;;;;2.80;1.30;;;;;;;;;;5100646;28;20222;-65
2022/09/27 08:53:07;;;;;;;1.37;1.07;;;;;;;;;;5112162;28;20592;-65
2022/09/27 08:55:42;;;;;;;0.90;0.90;;;;;;;;;;5106650;28;20319;-65
2022/09/27 08:58:16;;;;;;;1.87;1.57;;;;;;;;;;5094491;28;20307;-65
2022/09/27 09:00:43;;;;;;;1.37;1.27;;;;;;;;;;5085257;28;20201;-65
2022/09/27 09:03:17;;;;;;;1.20;1.20;;;;;;;;;;5124928;27;20200;-65
2022/09/27 09:05:50;;;;;;;2.10;1.10;;;;;;;;;;5087173;28;20768;-65
2022/09/27 09:08:21;;;;;;;1.50;1.40;;;;;;;;;;5094401;28;20257;-64
2022/09/27 09:13:43;;;;;;;1.60;1.50;;;;;;;;;;5112645;28;20200;-65
2022/09/27 09:16:10;;;;;;;1.67;1.57;;;;;;;;;;5098192;28;20283;-66
2022/09/27 09:18:50;;;;;;;1.50;1.07;;;;;;;;;;5084849;28;20686;-65
2022/09/27 09:21:17;;;;;;;1.90;1.30;;;;;;;;;;5073899;28;20291;-65
2022/09/27 09:23:45;;;;;;;2.97;1.47;;;;;;;;;;5090305;28;20191;-65
2022/09/27 09:26:22;;;;;;;1.50;1.40;;;;;;;;;;5093660;28;20307;-64
2022/09/27 09:28:49;;;;;;;2.87;1.30;;;;;;;;;;5102147;28;20693;-65
2022/09/27 09:31:20;;;;;;;3.07;1.40;;;;;;;;;;5093362;28;20261;-64
2022/09/27 09:33:50;;;;;;;2.33;1.57;;;;;;;;;;5102115;28;20742;-64
2022/09/27 09:36:18;;;;;;;2.27;1.33;;;;;;;;;;5088426;27;20330;-65
2022/09/27 09:38:52;;;;;;;1.87;1.33;;;;;;;;;;5087898;28;20312;-65
2022/09/27 09:41:25;;;;;;;3.40;1.50;;;;;;;;;;5093646;28;20200;-66
2022/09/27 09:44:11;;;;;;;1.47;1.37;;;;;;;;;;5111869;28;20208;-65
2022/09/27 09:46:40;;;;;;;2.00;1.30;;;;;;;;;;5093461;28;20395;-65
2022/09/27 09:49:18;;;;;;;2.03;1.40;;;;;;;;;;5093950;28;20261;-65
2022/09/27 09:51:49;;;;;;;1.50;1.40;;;;;;;;;;5091501;28;20200;-65
2022/09/27 09:54:23;;;;;;;2.23;1.50;;;;;;;;;;5093674;28;20299;-65
2022/09/27 09:56:58;;;;;;;1.97;1.50;;;;;;;;;;5093720;28;20313;-65
2022/09/27 09:59:28;;;;;;;1.60;1.50;;;;;;;;;;5120644;27;20300;-66
2022/09/27 10:01:59;;;;;;;1.83;1.50;;;;;;;;;;5111240;28;20207;-64
2022/09/27 10:04:27;;;;;;;2.30;1.60;;;;;;;;;;5110804;28;20213;-64
2022/09/27 10:06:57;;;;;;;2.90;1.60;;;;;;;;;;5104197;28;20299;-65
2022/09/27 10:09:26;;;;;;;2.50;1.60;;;;;;;;;;5090326;28;20362;-65
2022/09/27 10:11:53;;;;;;;1.93;1.60;;;;;;;;;;5090363;28;20293;-65
2022/09/27 10:14:21;;;;;;;2.27;1.47;;;;;;;;;;5090297;28;20205;-65
2022/09/27 10:16:50;;;;;;;2.10;1.63;;;;;;;;;;5102890;28;20241;-65
2022/09/27 10:19:19;;;;;;;5.83;1.87;;;;;;;;;;5096541;27;20310;-65
2022/09/27 10:21:48;;;;;;;2.67;1.57;;;;;;;;;;5093233;28;20291;-65
2022/09/27 10:24:16;;;;;;;2.90;1.53;;;;;;;;;;5093173;28;20201;-65
2022/09/27 10:26:46;;;;;;;2.13;1.30;;;;;;;;;;5078061;28;20684;-65
2022/09/27 10:29:15;;;;;;;2.53;1.40;;;;;;;;;;5092798;28;20208;-65
2022/09/27 10:31:46;;;;;;;3.10;1.50;;;;;;;;;;5110882;28;20294;-65
2022/09/27 10:34:18;;;;;;;1.50;1.20;;;;;;;;;;5093009;28;20208;-65
2022/09/27 10:36:45;;;;;;;3.33;1.17;;;;;;;;;;5086421;28;20315;-64
2022/09/27 10:39:21;;;;;;;1.57;1.30;;;;;;;;;;5093122;28;20224;-67
2022/09/27 10:41:48;;;;;;;1.50;1.37;;;;;;;;;;5092483;28;20242;-64
2022/09/27 10:44:18;;;;;;;1.87;1.20;;;;;;;;;;5092438;28;20287;-64
2022/09/27 10:46:48;;;;;;;2.50;1.20;;;;;;;;;;5109699;28;20204;-65
2022/09/27 10:49:25;;;;;;;1.07;1.00;;;;;;;;;;5099648;28;20200;-65
2022/09/27 10:51:54;;;;;;;1.10;1.10;;;;;;;;;;5084304;28;20296;-65
2022/09/27 10:54:27;;;;;;;1.27;1.10;;;;;;;;;;5090477;28;20232;-66
2022/09/27 10:57:05;;;;;;;2.53;1.47;;;;;;;;;;5092093;28;20236;-65
2022/09/27 10:59:34;;;;;;;1.40;1.13;;;;;;;;;;5086246;28;20224;-65
2022/09/27 11:02:02;;;;;;;2.73;1.10;;;;;;;;;;5117351;28;20286;-65
2022/09/27 11:04:32;;;;;;;0.90;0.90;;;;;;;;;;5092995;28;20287;-65
2022/09/27 11:07:19;;;;;;;0.97;0.90;;;;;;;;;;5092322;28;20283;-67
2022/09/27 11:09:48;;;;;;;1.20;1.10;;;;;;;;;;5092474;28;20622;-65
2022/09/27 11:12:21;;;;;;;1.63;1.27;;;;;;;;;;5092480;28;20262;-65
2022/09/27 11:14:53;;;;;;;1.80;0.97;;;;;;;;;;5092461;28;20259;-65
2022/09/27 11:17:32;;;;;;;0.83;0.83;;;;;;;;;;5088070;28;20204;-65
2022/09/27 11:20:10;;;;;;;0.73;0.70;;;;;;;;;;5112802;28;20656;-64
2022/09/27 11:22:47;;;;;;;0.87;0.87;;;;;;;;;;5113488;28;20270;-65
2022/09/27 11:25:38;;;;;;;0.83;0.70;;;;;;;;;;5131841;27;20310;-64
2022/09/27 11:28:41;;;;;;;0.70;0.70;;;;;;;;;;5059153;28;20617;-65
2022/09/27 11:31:11;;;;;;;0.83;0.70;;;;;;;;;;5025574;28;20213;-65
2022/09/27 11:33:53;;;;;;;2.17;1.00;;;;;;;;;;5066842;28;20580;-65
2022/09/27 11:36:20;;;;;;;0.80;0.80;;;;;;;;;;5105835;28;20223;-64
2022/09/27 11:38:51;;;;;;;0.70;0.70;;;;;;;;;;5106856;28;20577;-65
2022/09/27 11:41:20;;;;;;;0.90;0.90;;;;;;;;;;5094534;28;20204;-64
2022/09/27 11:44:05;;;;;;;0.90;0.80;;;;;;;;;;5096513;28;20291;-65
2022/09/27 11:46:37;;;;;;;0.63;0.63;;;;;;;;;;5095586;28;20240;-66
2022/09/27 11:49:27;;;;;;;0.80;0.73;;;;;;;;;;5098188;28;20485;-64
2022/09/27 11:52:23;;;;;;;2.33;0.83;;;;;;;;;;5078212;28;20722;-64
2022/09/27 11:54:50;;;;;;;0.70;0.70;;;;;;;;;;5055349;28;20225;-64
2022/09/27 11:57:22;;;;;;;0.67;0.67;;;;;;;;;;5078785;27;20209;-65
2022/09/27 11:59:49;;;;;;;0.70;0.70;;;;;;;;;;5102938;28;20390;-65
2022/09/27 12:02:35;;;;;;;0.83;0.70;;;;;;;;;;5097247;28;20207;-65
2022/09/27 12:05:30;;;;;;;0.60;0.60;;;;;;;;;;5096784;28;20304;-66
2022/09/27 12:08:09;;;;;;;3.07;0.83;;;;;;;;;;5084166;28;20312;-64
2022/09/27 12:10:38;;;;;;;0.80;0.80;;;;;;;;;;5076528;28;20208;-65
2022/09/27 12:13:05;;;;;;;2.40;0.80;;;;;;;;;;5076810;28;20296;-65
2022/09/27 12:15:36;;;;;;;0.93;0.83;;;;;;;;;;5076266;28;20216;-64
2022/09/27 12:18:12;;;;;;;0.80;0.80;;;;;;;;;;5086863;28;20478;-64
2022/09/27 12:20:40;;;;;;;0.80;0.80;;;;;;;;;;5087979;28;20607;-66
2022/09/27 12:23:15;;;;;;;0.83;0.63;;;;;;;;;;5095679;28;20307;-65
2022/09/27 12:25:43;;;;;;;0.60;0.60;;;;;;;;;;5094806;28;20258;-65
2022/09/27 12:28:29;;;;;;;0.70;0.70;;;;;;;;;;5101264;28;20835;-65
2022/09/27 12:31:00;;;;;;;0.73;0.73;;;;;;;;;;5102082;28;20303;-65
2022/09/27 12:34:08;;;;;;;2.13;0.80;;;;;;;;;;5113633;28;20212;-65
2022/09/27 12:36:41;;;;;;;1.03;0.70;;;;;;;;;;5045473;28;20223;-64
2022/09/27 12:39:22;;;;;;;0.67;0.67;;;;;;;;;;5095118;28;20248;-65
2022/09/27 12:42:00;;;;;;;1.40;0.73;;;;;;;;;;5095172;28;20832;-65
2022/09/27 12:44:28;;;;;;;0.83;0.70;;;;;;;;;;5095675;28;20231;-65
2022/09/27 12:46:55;;;;;;;3.07;0.80;;;;;;;;;;5094783;28;20295;-65
2022/09/27 12:49:25;;;;;;;2.20;0.80;;;;;;;;;;5106117;27;20258;-65
2022/09/27 12:51:58;;;;;;;0.93;0.93;;;;;;;;;;5094740;28;20232;-65
2022/09/27 12:54:26;;;;;;;1.33;0.87;;;;;;;;;;5112609;28;20226;-65
2022/09/27 12:56:59;;;;;;;1.13;1.10;;;;;;;;;;5112522;28;20700;-64
2022/09/27 12:59:46;;;;;;;1.10;1.00;;;;;;;;;;5083970;27;20310;-65
2022/09/27 13:02:14;;;;;;;0.90;0.70;;;;;;;;;;5115074;27;20621;-65
2022/09/27 13:05:00;;;;;;;0.70;0.70;;;;;;;;;;5114949;27;20219;-65
2022/09/27 13:07:34;;;;;;;1.03;0.83;;;;;;;;;;5114523;27;20687;-65
2022/09/27 13:10:16;;;;;;;0.90;0.77;;;;;;;;;;5114747;27;20294;-65
2022/09/27 13:12:48;;;;;;;1.97;0.90;;;;;;;;;;5116626;27;20226;-65
2022/09/27 13:15:24;;;;;;;1.83;0.90;;;;;;;;;;5108468;28;20232;-65
2022/09/27 13:17:58;;;;;;;0.87;0.70;;;;;;;;;;5094178;28;20283;-65
2022/09/27 13:20:34;;;;;;;2.53;0.70;;;;;;;;;;5094427;28;20231;-65
2022/09/27 13:23:02;;;;;;;1.37;0.90;;;;;;;;;;5093969;28;20693;-64
2022/09/27 13:25:48;;;;;;;0.80;0.80;;;;;;;;;;5121475;27;20220;-65
2022/09/27 13:28:36;;;;;;;0.97;0.77;;;;;;;;;;5098540;27;20208;-65
2022/09/27 13:31:08;;;;;;;0.90;0.60;;;;;;;;;;5097991;28;20419;-65
2022/09/27 13:33:51;;;;;;;1.70;0.70;;;;;;;;;;5093543;28;20190;-65
2022/09/27 13:36:27;;;;;;;0.70;0.70;;;;;;;;;;5074624;28;20311;-65
2022/09/27 13:39:10;;;;;;;0.50;0.50;;;;;;;;;;5094352;28;20218;-64
2022/09/27 13:41:52;;;;;;;0.60;0.60;;;;;;;;;;5094026;28;20204;-65
2022/09/27 13:44:21;;;;;;;0.87;0.60;;;;;;;;;;5093937;28;20607;-65
2022/09/27 13:46:55;;;;;;;0.67;0.67;;;;;;;;;;5093241;28;20731;-65
2022/09/27 13:49:28;;;;;;;0.60;0.60;;;;;;;;;;5089191;27;20205;-65
2022/09/27 13:52:15;;;;;;;0.80;0.60;;;;;;;;;;5098689;28;20420;-65
2022/09/27 13:54:49;;;;;;;0.83;0.60;;;;;;;;;;5076877;28;20238;-65
2022/09/27 13:57:35;;;;;;;1.03;0.57;;;;;;;;;;5093207;27;20200;-65
2022/09/27 14:00:06;;;;;;;0.60;0.60;;;;;;;;;;5097971;28;20315;-65
2022/09/27 14:02:50;;;;;;;0.60;0.60;;;;;;;;;;5093628;28;20200;-65
2022/09/27 14:05:20;;;;;;;0.57;0.57;;;;;;;;;;5092279;28;20224;-64
2022/09/27 14:07:48;;;;;;;0.60;0.60;;;;;;;;;;5073301;28;20296;-65
2022/09/27 14:10:17;;;;;;;0.70;0.70;;;;;;;;;;5072940;28;20284;-65
2022/09/27 14:12:44;;;;;;;0.73;0.73;;;;;;;;;;5072860;28;20295;-64
2022/09/27 14:15:32;;;;;;;1.40;0.70;;;;;;;;;;5090793;28;20311;-65
2022/09/27 14:18:00;;;;;;;0.63;0.60;;;;;;;;;;5073012;28;20213;-65
2022/09/27 14:20:34;;;;;;;0.70;0.70;;;;;;;;;;5098517;27;20279;-65
2022/09/27 14:23:02;;;;;;;1.27;0.70;;;;;;;;;;5094023;28;20288;-66
2022/09/27 14:25:29;;;;;;;0.60;0.60;;;;;;;;;;5072855;28;20225;-64
2022/09/27 14:27:59;;;;;;;0.80;0.80;;;;;;;;;;5080318;28;20207;-65
2022/09/27 14:30:27;;;;;;;1.03;0.90;;;;;;;;;;5093659;28;20203;-65
2022/09/27 14:32:59;;;;;;;1.57;0.90;;;;;;;;;;5092884;28;20318;-65
2022/09/27 14:38:19;;;;;;;1.17;0.90;;;;;;;;;;5111038;28;20237;-65
2022/09/27 14:41:06;;;;;;;2.27;1.00;;;;;;;;;;5094688;28;20713;-65
2022/09/27 14:43:34;;;;;;;1.13;0.90;;;;;;;;;;5093082;28;20204;-65
2022/09/27 14:46:06;;;;;;;2.07;1.00;;;;;;;;;;5092382;28;20853;-65
2022/09/27 14:48:38;;;;;;;2.30;0.87;;;;;;;;;;5094459;28;20201;-65
2022/09/27 14:51:11;;;;;;;0.67;0.67;;;;;;;;;;5104239;28;20239;-65
2022/09/27 14:53:59;;;;;;;1.07;1.00;;;;;;;;;;5092997;28;20203;-64
2022/09/27 14:56:36;;;;;;;0.77;0.73;;;;;;;;;;5092650;28;20318;-64
2022/09/27 14:59:08;;;;;;;0.97;0.93;;;;;;;;;;5098441;28;20203;-65
2022/09/27 15:01:38;;;;;;;0.90;0.90;;;;;;;;;;5109212;28;20200;-66
2022/09/27 15:04:06;;;;;;;1.23;0.87;;;;;;;;;;5109361;28;20287;-65
2022/09/27 15:06:37;;;;;;;0.80;0.70;;;;;;;;;;5109656;28;20273;-66
2022/09/27 15:09:05;;;;;;;3.77;2.40;;;;;;;;;;5109946;28;20239;-66
2022/09/27 15:11:33;;;;;;;1.10;1.10;;;;;;;;;;5108069;28;20215;-64
2022/09/27 15:14:02;;;;;;;0.70;0.70;;;;;;;;;;5105174;28;20216;-65
2022/09/27 15:16:30;;;;;;;0.70;0.70;;;;;;;;;;5074165;28;20252;-65
2022/09/27 15:19:15;;;;;;;2.47;1.20;;;;;;;;;;5095769;28;20265;-65